OS212 LOWW-EDDF
Flight info
| Callsign | OS212 |
|---|---|
| Flight time | N/A |
| Altitude | 30000 |
| Route | LUGEM DCT SUBEN T161 DEBHI DEBHI1B |
| Aircraft | A20N/M-SDE2E3FGHIRWXY/LB1 |
Departure
| Time | 2026-05-06 17:53 |
|---|---|
| Airport | Vienna International Airport (LOWW) |
Arrival
| Time | N/A |
|---|---|
| Airport | Frankfurt Main Airport (EDDF) |
| Time | Latitude | Longitude | Altitude | Speed | Heading |
|---|---|---|---|---|---|
| 2026-05-06 17:14 | 48.11670 | 16.56899 | 604 ft | 0 kts | 27° |
| 2026-05-06 17:42 | 48.11665 | 16.56895 | 605 ft | 2 kts | 25° |
| 2026-05-06 17:42 | 48.11651 | 16.56885 | 605 ft | 2 kts | 28° |
| 2026-05-06 17:43 | 48.11638 | 16.56875 | 605 ft | 2 kts | 27° |
| 2026-05-06 17:43 | 48.11624 | 16.56864 | 605 ft | 2 kts | 40° |
| 2026-05-06 17:43 | 48.11615 | 16.56847 | 605 ft | 2 kts | 68° |
| 2026-05-06 17:43 | 48.11613 | 16.56817 | 604 ft | 2 kts | 104° |
| 2026-05-06 17:44 | 48.11615 | 16.56810 | 604 ft | 0 kts | 114° |
| 2026-05-06 17:44 | 48.11618 | 16.56800 | 604 ft | 0 kts | 117° |
| 2026-05-06 17:47 | 48.11613 | 16.56816 | 604 ft | 4 kts | 117° |
| 2026-05-06 17:47 | 48.11594 | 16.56873 | 605 ft | 7 kts | 116° |
| 2026-05-06 17:47 | 48.11567 | 16.56956 | 605 ft | 9 kts | 116° |
| 2026-05-06 17:47 | 48.11538 | 16.57049 | 605 ft | 10 kts | 115° |
| 2026-05-06 17:48 | 48.11505 | 16.57146 | 605 ft | 10 kts | 116° |
| 2026-05-06 17:48 | 48.11470 | 16.57253 | 603 ft | 12 kts | 117° |
| 2026-05-06 17:48 | 48.11458 | 16.57291 | 602 ft | 0 kts | 115° |
| 2026-05-06 17:49 | 48.11443 | 16.57338 | 601 ft | 7 kts | 116° |
| 2026-05-06 17:49 | 48.11454 | 16.57426 | 600 ft | 11 kts | 40° |
| 2026-05-06 17:50 | 48.11546 | 16.57453 | 599 ft | 15 kts | 347° |
| 2026-05-06 17:50 | 48.11666 | 16.57403 | 599 ft | 19 kts | 344° |
| 2026-05-06 17:50 | 48.11800 | 16.57351 | 596 ft | 21 kts | 344° |
| 2026-05-06 17:50 | 48.11820 | 16.57342 | 595 ft | 0 kts | 341° |
| 2026-05-06 17:51 | 48.11846 | 16.57328 | 595 ft | 9 kts | 341° |
| 2026-05-06 17:51 | 48.11921 | 16.57296 | 593 ft | 13 kts | 345° |
| 2026-05-06 17:51 | 48.11996 | 16.57366 | 589 ft | 15 kts | 70° |
| 2026-05-06 17:51 | 48.12007 | 16.57524 | 589 ft | 15 kts | 103° |
| 2026-05-06 17:52 | 48.11979 | 16.57678 | 589 ft | 15 kts | 107° |
| 2026-05-06 17:52 | 48.11937 | 16.57817 | 590 ft | 14 kts | 133° |
| 2026-05-06 17:52 | 48.11861 | 16.57869 | 591 ft | 0 kts | 165° |
| 2026-05-06 17:52 | 48.11766 | 16.57910 | 592 ft | 47 kts | 164° |
| 2026-05-06 17:53 | 48.11445 | 16.58047 | 592 ft | 94 kts | 165° |
| 2026-05-06 17:53 | 48.10614 | 16.58400 | 600 ft | 152 kts | 164° |
| 2026-05-06 17:53 | 48.09554 | 16.58874 | 1125 ft | 160 kts | 165° |
| 2026-05-06 17:53 | 48.08511 | 16.59312 | 1909 ft | 158 kts | 168° |
| 2026-05-06 17:54 | 48.07481 | 16.59732 | 2672 ft | 157 kts | 169° |
| 2026-05-06 17:54 | 48.06372 | 16.60045 | 3158 ft | 171 kts | 185° |
| 2026-05-06 17:54 | 48.05212 | 16.59430 | 3615 ft | 189 kts | 214° |
| 2026-05-06 17:54 | 48.04269 | 16.57905 | 4006 ft | 215 kts | 228° |
| 2026-05-06 17:55 | 48.03306 | 16.56112 | 4540 ft | 234 kts | 234° |
| 2026-05-06 17:55 | 48.02651 | 16.53800 | 5183 ft | 253 kts | 255° |
| 2026-05-06 17:55 | 48.02541 | 16.51147 | 6062 ft | 261 kts | 266° |
| 2026-05-06 17:55 | 48.02616 | 16.47580 | 7311 ft | 264 kts | 274° |
| 2026-05-06 17:56 | 48.02837 | 16.45766 | 7894 ft | 268 kts | 278° |
| 2026-05-06 17:56 | 48.03254 | 16.43080 | 8708 ft | 272 kts | 280° |
| 2026-05-06 17:56 | 48.03691 | 16.40325 | 9515 ft | 276 kts | 280° |
| 2026-05-06 17:56 | 48.04121 | 16.37560 | 10260 ft | 281 kts | 279° |
| 2026-05-06 17:57 | 48.04565 | 16.34632 | 10628 ft | 295 kts | 279° |
| 2026-05-06 17:57 | 48.05019 | 16.31553 | 10919 ft | 311 kts | 279° |
| 2026-05-06 17:57 | 48.05485 | 16.28339 | 11202 ft | 327 kts | 279° |
| 2026-05-06 17:57 | 48.06143 | 16.23791 | 11648 ft | 345 kts | 279° |
| 2026-05-06 17:58 | 48.06484 | 16.21426 | 12040 ft | 349 kts | 279° |
| 2026-05-06 17:58 | 48.06988 | 16.17901 | 12670 ft | 352 kts | 278° |
| 2026-05-06 17:58 | 48.07503 | 16.14297 | 13297 ft | 356 kts | 279° |
| 2026-05-06 17:58 | 48.08015 | 16.10694 | 13921 ft | 360 kts | 279° |
| 2026-05-06 17:59 | 48.08532 | 16.07047 | 14574 ft | 363 kts | 278° |
| 2026-05-06 17:59 | 48.09055 | 16.03352 | 15237 ft | 366 kts | 278° |
| 2026-05-06 17:59 | 48.09583 | 15.99605 | 15910 ft | 368 kts | 278° |
| 2026-05-06 17:59 | 48.10101 | 15.95917 | 16561 ft | 371 kts | 278° |
| 2026-05-06 18:00 | 48.10632 | 15.92118 | 17210 ft | 374 kts | 278° |
| 2026-05-06 18:00 | 48.11162 | 15.88329 | 17829 ft | 376 kts | 278° |
| 2026-05-06 18:00 | 48.11700 | 15.84461 | 18435 ft | 379 kts | 278° |
| 2026-05-06 18:00 | 48.12232 | 15.80623 | 19013 ft | 382 kts | 278° |
| 2026-05-06 18:01 | 48.12775 | 15.76690 | 19592 ft | 385 kts | 278° |
| 2026-05-06 18:01 | 48.13310 | 15.72806 | 20168 ft | 388 kts | 278° |
| 2026-05-06 18:01 | 48.13858 | 15.68827 | 20734 ft | 391 kts | 278° |
| 2026-05-06 18:01 | 48.14405 | 15.64844 | 21302 ft | 394 kts | 278° |
| 2026-05-06 18:02 | 48.14954 | 15.60833 | 21850 ft | 396 kts | 278° |
| 2026-05-06 18:02 | 48.15505 | 15.56799 | 22390 ft | 399 kts | 278° |
| 2026-05-06 18:02 | 48.16061 | 15.52722 | 22919 ft | 402 kts | 278° |
| 2026-05-06 18:02 | 48.16620 | 15.48611 | 23457 ft | 404 kts | 278° |
| 2026-05-06 18:03 | 48.17177 | 15.44494 | 23962 ft | 406 kts | 278° |
| 2026-05-06 18:03 | 48.17736 | 15.40361 | 24456 ft | 408 kts | 277° |
| 2026-05-06 18:03 | 48.18298 | 15.36198 | 24936 ft | 410 kts | 277° |
| 2026-05-06 18:03 | 48.19062 | 15.30494 | 25561 ft | 413 kts | 277° |
| 2026-05-06 18:04 | 48.19458 | 15.27533 | 25877 ft | 415 kts | 277° |
| 2026-05-06 18:04 | 48.20067 | 15.22983 | 26448 ft | 415 kts | 276° |
| 2026-05-06 18:04 | 48.20642 | 15.18666 | 27108 ft | 411 kts | 276° |
| 2026-05-06 18:04 | 48.21192 | 15.14535 | 27745 ft | 408 kts | 276° |
| 2026-05-06 18:05 | 48.21746 | 15.10350 | 28295 ft | 406 kts | 276° |
| 2026-05-06 18:05 | 48.22287 | 15.06242 | 28710 ft | 407 kts | 276° |
| 2026-05-06 18:05 | 48.22831 | 15.02085 | 29068 ft | 408 kts | 276° |
| 2026-05-06 18:05 | 48.23374 | 14.97942 | 29422 ft | 410 kts | 276° |
| 2026-05-06 18:06 | 48.23921 | 14.93749 | 29683 ft | 411 kts | 276° |
| 2026-05-06 18:06 | 48.24467 | 14.89549 | 29690 ft | 410 kts | 276° |
| 2026-05-06 18:06 | 48.25559 | 14.81128 | 29687 ft | 411 kts | 276° |
| 2026-05-06 18:07 | 48.26635 | 14.72794 | 29678 ft | 410 kts | 276° |
| 2026-05-06 18:07 | 48.27710 | 14.64408 | 29679 ft | 410 kts | 276° |
| 2026-05-06 18:08 | 48.28777 | 14.56017 | 29676 ft | 410 kts | 276° |
| 2026-05-06 18:08 | 48.29839 | 14.47631 | 29683 ft | 410 kts | 276° |
| 2026-05-06 18:09 | 48.30892 | 14.39257 | 29684 ft | 411 kts | 276° |
| 2026-05-06 18:09 | 48.32125 | 14.29402 | 29693 ft | 411 kts | 275° |
| 2026-05-06 18:10 | 48.32988 | 14.22447 | 29694 ft | 410 kts | 275° |
| 2026-05-06 18:10 | 48.34028 | 14.14029 | 29696 ft | 409 kts | 275° |
| 2026-05-06 18:11 | 48.35053 | 14.05679 | 29696 ft | 408 kts | 275° |
| 2026-05-06 18:11 | 48.36079 | 13.97265 | 29705 ft | 409 kts | 275° |
| 2026-05-06 18:12 | 48.37090 | 13.88909 | 29707 ft | 409 kts | 275° |
| 2026-05-06 18:12 | 48.38098 | 13.80539 | 29717 ft | 409 kts | 275° |
| 2026-05-06 18:13 | 48.39104 | 13.72125 | 29719 ft | 409 kts | 275° |
| 2026-05-06 18:13 | 48.40104 | 13.63714 | 29721 ft | 409 kts | 275° |
| 2026-05-06 18:14 | 48.41098 | 13.55300 | 29725 ft | 411 kts | 275° |
| 2026-05-06 18:14 | 48.42086 | 13.46878 | 29735 ft | 411 kts | 275° |
| 2026-05-06 18:15 | 48.43129 | 13.38425 | 29732 ft | 413 kts | 278° |
| 2026-05-06 18:15 | 48.44669 | 13.30061 | 29744 ft | 418 kts | 283° |
| 2026-05-06 18:16 | 48.46737 | 13.21858 | 29747 ft | 418 kts | 286° |
| 2026-05-06 18:16 | 48.48895 | 13.13696 | 29748 ft | 420 kts | 286° |
| 2026-05-06 18:17 | 48.51046 | 13.05509 | 29751 ft | 419 kts | 287° |
| 2026-05-06 18:17 | 48.53183 | 12.97344 | 29741 ft | 421 kts | 286° |
| 2026-05-06 18:18 | 48.55318 | 12.89171 | 29740 ft | 424 kts | 286° |
| 2026-05-06 18:18 | 48.57460 | 12.80926 | 29750 ft | 424 kts | 286° |
| 2026-05-06 18:19 | 48.59607 | 12.72638 | 29756 ft | 426 kts | 285° |
| 2026-05-06 18:19 | 48.61759 | 12.64294 | 29761 ft | 426 kts | 285° |
| 2026-05-06 18:20 | 48.63908 | 12.55926 | 29774 ft | 431 kts | 286° |
| 2026-05-06 18:20 | 48.66074 | 12.47462 | 29760 ft | 434 kts | 286° |
| 2026-05-06 18:21 | 48.68265 | 12.38888 | 30047 ft | 439 kts | 286° |
| 2026-05-06 18:21 | 48.69361 | 12.34587 | 30501 ft | 438 kts | 285° |
| 2026-05-06 18:21 | 48.70452 | 12.30300 | 30839 ft | 438 kts | 284° |
| 2026-05-06 18:22 | 48.71526 | 12.26060 | 31237 ft | 437 kts | 285° |
| 2026-05-06 18:22 | 48.72610 | 12.21776 | 31651 ft | 435 kts | 284° |
| 2026-05-06 18:22 | 48.73662 | 12.17470 | 31760 ft | 436 kts | 283° |
| 2026-05-06 18:22 | 48.74565 | 12.13084 | 31763 ft | 435 kts | 279° |
| 2026-05-06 18:23 | 48.75861 | 12.04183 | 31772 ft | 434 kts | 274° |
| 2026-05-06 18:23 | 48.76838 | 11.95155 | 31767 ft | 436 kts | 273° |
| 2026-05-06 18:24 | 48.77805 | 11.86102 | 31781 ft | 436 kts | 273° |
| 2026-05-06 18:24 | 48.78772 | 11.77023 | 31787 ft | 434 kts | 273° |
| 2026-05-06 18:25 | 48.79726 | 11.67997 | 31797 ft | 434 kts | 273° |
| 2026-05-06 18:25 | 48.80668 | 11.59017 | 31798 ft | 432 kts | 273° |
| 2026-05-06 18:26 | 48.81974 | 11.50060 | 31810 ft | 440 kts | 285° |
| 2026-05-06 18:26 | 48.84924 | 11.41873 | 31810 ft | 451 kts | 301° |
| 2026-05-06 18:27 | 48.88747 | 11.34290 | 31811 ft | 454 kts | 302° |
| 2026-05-06 18:27 | 48.92606 | 11.26707 | 31810 ft | 452 kts | 302° |
| 2026-05-06 18:28 | 48.96415 | 11.19133 | 31805 ft | 451 kts | 302° |
| 2026-05-06 18:28 | 49.00192 | 11.11573 | 31542 ft | 450 kts | 302° |
| 2026-05-06 18:29 | 49.02083 | 11.07777 | 31290 ft | 447 kts | 302° |
| 2026-05-06 18:29 | 49.03962 | 11.04000 | 31045 ft | 446 kts | 302° |
| 2026-05-06 18:29 | 49.05839 | 11.00219 | 30801 ft | 444 kts | 302° |
| 2026-05-06 18:29 | 49.07709 | 10.96449 | 30538 ft | 443 kts | 302° |
| 2026-05-06 18:30 | 49.09547 | 10.92739 | 30193 ft | 440 kts | 303° |
| 2026-05-06 18:30 | 49.11383 | 10.89028 | 29499 ft | 440 kts | 303° |
| 2026-05-06 18:30 | 49.13847 | 10.84027 | 28302 ft | 446 kts | 303° |
| 2026-05-06 18:30 | 49.15072 | 10.81537 | 27717 ft | 448 kts | 303° |
| 2026-05-06 18:31 | 49.16952 | 10.77718 | 26863 ft | 450 kts | 304° |
| 2026-05-06 18:31 | 49.18843 | 10.73902 | 26029 ft | 452 kts | 306° |
| 2026-05-06 18:31 | 49.20953 | 10.70257 | 25194 ft | 455 kts | 311° |
| 2026-05-06 18:31 | 49.23150 | 10.66837 | 24803 ft | 449 kts | 313° |
| 2026-05-06 18:32 | 49.25346 | 10.63470 | 24409 ft | 448 kts | 313° |
| 2026-05-06 18:32 | 49.27528 | 10.60099 | 24021 ft | 445 kts | 313° |
| 2026-05-06 18:32 | 49.29709 | 10.56688 | 23790 ft | 441 kts | 313° |
| 2026-05-06 18:32 | 49.31826 | 10.53350 | 23545 ft | 443 kts | 312° |
| 2026-05-06 18:33 | 49.33959 | 10.49958 | 23022 ft | 438 kts | 311° |
| 2026-05-06 18:33 | 49.35956 | 10.46483 | 22499 ft | 431 kts | 308° |
| 2026-05-06 18:33 | 49.37775 | 10.42910 | 21973 ft | 425 kts | 304° |
| 2026-05-06 18:33 | 49.39478 | 10.39244 | 21452 ft | 421 kts | 303° |
| 2026-05-06 18:34 | 49.41148 | 10.35572 | 20933 ft | 416 kts | 303° |
| 2026-05-06 18:34 | 49.42793 | 10.31942 | 20417 ft | 412 kts | 302° |
| 2026-05-06 18:34 | 49.44415 | 10.28363 | 19906 ft | 408 kts | 302° |
| 2026-05-06 18:34 | 49.46035 | 10.24792 | 19392 ft | 404 kts | 302° |
| 2026-05-06 18:35 | 49.47629 | 10.21280 | 18888 ft | 400 kts | 302° |
| 2026-05-06 18:35 | 49.49220 | 10.17771 | 18374 ft | 396 kts | 302° |
| 2026-05-06 18:35 | 49.50772 | 10.14344 | 17879 ft | 392 kts | 302° |
| 2026-05-06 18:35 | 49.52336 | 10.10886 | 17375 ft | 389 kts | 302° |
| 2026-05-06 18:36 | 49.53267 | 10.08827 | 17070 ft | 387 kts | 302° |